Time;durP1;ratioP1;P1;durP2;ratioP2;P2;SDS_P1;SDS_P2;PMS_P1;PMS_P2;Temp;Humidity;BMP_temperature;BMP_pressure;BME280_temperature;BME280_humidity;BME280_pressure;Samples;Min_cycle;Max_cycle;Signal;HPM_P1;HPM_P2
2023/06/03 00:00:28;;;;;;;7.22;3.20;;;;;;;12.95;70.06;101464.06;4978771;28;20042;-71
2023/06/03 00:02:56;;;;;;;9.45;3.58;;;;;;;12.97;69.80;101460.56;5008579;28;20083;-71
2023/06/03 00:05:22;;;;;;;7.85;3.00;;;;;;;12.99;69.93;101457.97;4976345;28;20042;-71
2023/06/03 00:07:48;;;;;;;5.07;3.03;;;;;;;12.98;69.59;101456.25;4975034;28;20042;-71
2023/06/03 00:10:13;;;;;;;7.25;3.30;;;;;;;12.96;69.52;101451.09;4975264;28;20038;-71
2023/06/03 00:12:39;;;;;;;6.30;2.75;;;;;;;12.96;69.24;101445.03;4979424;28;20146;-71
2023/06/03 00:15:06;;;;;;;8.23;3.33;;;;;;;12.94;69.50;101447.63;4976599;28;21265;-71
2023/06/03 00:17:33;;;;;;;8.80;3.17;;;;;;;12.95;69.84;101457.13;4976474;28;20134;-70
2023/06/03 00:20:06;;;;;;;9.57;3.53;;;;;;;12.89;69.88;101456.31;4977050;28;20208;-71
2023/06/03 00:22:35;;;;;;;4.75;3.35;;;;;;;12.85;69.98;101460.66;4977812;28;20049;-71
2023/06/03 00:25:00;;;;;;;8.77;3.47;;;;;;;12.80;70.48;101457.22;4977801;28;20417;-70
2023/06/03 00:27:25;;;;;;;6.45;3.42;;;;;;;12.76;70.58;101455.53;4978281;28;20031;-71
2023/06/03 00:29:51;;;;;;;6.97;3.05;;;;;;;12.72;70.83;101458.16;4974013;28;20039;-71
2023/06/03 00:32:16;;;;;;;4.68;3.72;;;;;;;12.71;70.88;101459.88;4976065;28;20100;-71
2023/06/03 00:34:42;;;;;;;10.68;4.13;;;;;;;12.71;70.69;101462.47;4978034;28;20042;-71
2023/06/03 00:37:07;;;;;;;8.40;4.40;;;;;;;12.70;71.02;101454.72;4975612;28;20034;-71
2023/06/03 00:39:32;;;;;;;5.93;3.63;;;;;;;12.63;71.31;101459.06;4981493;28;20289;-71
2023/06/03 00:41:58;;;;;;;10.43;4.28;;;;;;;12.57;71.67;101466.03;4981212;28;20041;-70
2023/06/03 00:44:23;;;;;;;7.72;3.80;;;;;;;12.49;71.47;101460.91;4984526;28;20042;-71
2023/06/03 00:46:49;;;;;;;9.45;3.22;;;;;;;12.43;71.62;101456.56;4975583;28;20848;-71
2023/06/03 00:49:15;;;;;;;7.35;3.50;;;;;;;12.35;71.72;101452.28;4977786;28;20062;-71
2023/06/03 00:51:41;;;;;;;10.30;3.92;;;;;;;12.29;72.33;101455.78;4978557;28;20080;-71
2023/06/03 00:54:06;;;;;;;6.60;3.28;;;;;;;12.23;72.25;101457.53;4977961;28;20038;-71
2023/06/03 00:56:35;;;;;;;5.97;3.47;;;;;;;12.18;72.94;101467.94;4979532;28;20129;-71
2023/06/03 00:59:01;;;;;;;6.88;3.50;;;;;;;12.13;73.04;101458.44;4975437;28;20046;-71
2023/06/03 01:01:28;;;;;;;7.47;3.65;;;;;;;12.06;73.81;101461.91;4975362;28;20038;-71
2023/06/03 01:03:54;;;;;;;4.88;3.25;;;;;;;12.02;73.64;101455.88;4976947;28;20507;-71
2023/06/03 01:06:20;;;;;;;3.75;3.08;;;;;;;11.99;74.16;101455.06;4976136;28;20034;-71
2023/06/03 01:09:00;;;;;;;6.45;3.45;;;;;;;11.96;74.07;101450.72;4975458;28;20844;-71
2023/06/03 01:11:46;;;;;;;5.78;3.53;;;;;;;11.95;73.92;101453.31;4974855;28;20038;-70
2023/06/03 01:14:15;;;;;;;9.07;3.72;;;;;;;11.96;74.26;101458.50;4976037;28;20062;-71
2023/06/03 01:16:44;;;;;;;7.25;3.60;;;;;;;11.98;74.31;101463.69;4974810;28;20466;-71
2023/06/03 01:19:40;;;;;;;7.13;4.07;;;;;;;11.99;74.96;101463.66;5034042;28;20897;-70
2023/06/03 01:22:07;;;;;;;5.85;3.35;;;;;;;11.97;74.97;101462.81;5005627;28;20071;-72
2023/06/03 01:24:34;;;;;;;7.43;3.80;;;;;;;11.91;74.77;101470.59;5005443;28;20018;-71
2023/06/03 01:27:00;;;;;;;7.90;3.65;;;;;;;11.85;75.34;101468.91;5005286;28;22398;-71
2023/06/03 01:29:26;;;;;;;8.68;3.50;;;;;;;11.79;75.58;101461.13;5003871;28;20041;-71
2023/06/03 01:31:55;;;;;;;5.15;3.45;;;;;;;11.77;75.86;101457.69;5001342;28;20045;-71
2023/06/03 01:34:21;;;;;;;6.95;3.30;;;;;;;11.74;76.01;101456.84;5003642;28;20095;-71
2023/06/03 01:36:46;;;;;;;6.97;3.78;;;;;;;11.75;76.48;101459.41;5007526;28;20093;-71
2023/06/03 01:39:12;;;;;;;5.53;3.63;;;;;;;11.73;75.78;101455.09;5001079;28;20054;-71
2023/06/03 01:41:42;;;;;;;8.10;4.10;;;;;;;11.71;76.37;101447.34;5004207;28;20698;-71
2023/06/03 01:44:08;;;;;;;5.90;3.28;;;;;;;11.73;76.13;101453.38;5004776;28;20037;-71
2023/06/03 01:46:35;;;;;;;6.90;4.05;;;;;;;11.71;75.93;101456.84;5001125;28;20041;-71
2023/06/03 01:49:02;;;;;;;6.20;3.92;;;;;;;11.69;76.81;101458.59;5004544;28;20037;-71
2023/06/03 01:51:28;;;;;;;8.77;4.05;;;;;;;11.64;76.50;101453.41;5004596;28;20121;-71
2023/06/03 01:53:53;;;;;;;7.93;3.67;;;;;;;11.61;77.10;101460.31;5004433;28;20070;-71
2023/06/03 01:56:18;;;;;;;7.85;3.97;;;;;;;11.66;77.18;101453.41;5003870;28;20045;-71
2023/06/03 01:58:44;;;;;;;7.47;4.20;;;;;;;11.63;77.19;101449.09;5003706;28;20037;-71
2023/06/03 02:01:10;;;;;;;5.60;3.88;;;;;;;11.61;77.33;101452.53;4999029;28;20125;-72
2023/06/03 02:03:35;;;;;;;9.13;4.10;;;;;;;11.63;77.78;101461.19;5004927;28;20057;-70
2023/06/03 02:06:01;;;;;;;9.80;3.95;;;;;;;11.63;77.34;101456.88;5002553;28;20034;-71
2023/06/03 02:08:26;;;;;;;8.23;4.68;;;;;;;11.62;78.02;101464.63;5005934;28;20045;-70
2023/06/03 02:10:52;;;;;;;8.45;3.55;;;;;;;11.57;77.65;101456.88;5006753;28;20038;-71
2023/06/03 02:13:17;;;;;;;6.38;3.72;;;;;;;11.54;78.50;101456.88;5009939;28;20115;-71
2023/06/03 02:15:42;;;;;;;9.48;3.92;;;;;;;11.52;78.36;101456.00;5016713;28;20080;-71
2023/06/03 02:18:08;;;;;;;6.72;4.38;;;;;;;11.55;78.49;101448.22;5003510;28;20040;-70
2023/06/03 02:20:33;;;;;;;8.80;4.68;;;;;;;11.50;79.35;101446.50;5008299;28;20046;-71
2023/06/03 02:23:01;;;;;;;7.95;4.38;;;;;;;11.46;79.09;101453.41;5007319;28;20045;-71
2023/06/03 02:25:27;;;;;;;6.22;3.72;;;;;;;11.43;79.13;101450.84;5007523;28;20042;-72
2023/06/03 02:27:54;;;;;;;9.68;4.63;;;;;;;11.42;79.07;101440.47;5006958;28;20041;-72
2023/06/03 02:30:20;;;;;;;6.45;4.00;;;;;;;11.41;78.92;101446.50;4991622;28;20458;-72
2023/06/03 02:32:45;;;;;;;7.28;3.63;;;;;;;11.38;79.32;101442.19;4992585;28;20733;-72
2023/06/03 02:35:11;;;;;;;8.93;4.47;;;;;;;11.35;79.29;101437.88;4994045;28;20038;-72
2023/06/03 02:37:36;;;;;;;11.48;4.10;;;;;;;11.34;78.83;101436.16;4992716;28;20228;-72
2023/06/03 02:40:02;;;;;;;6.68;3.92;;;;;;;11.34;79.41;101437.84;4991766;28;20040;-72
2023/06/03 02:42:27;;;;;;;6.93;3.72;;;;;;;11.31;78.83;101446.50;4994847;28;20029;-72
2023/06/03 02:44:53;;;;;;;11.30;4.93;;;;;;;11.30;79.52;101447.38;4993118;28;20038;-71
2023/06/03 02:47:18;;;;;;;10.25;4.15;;;;;;;11.28;79.42;101436.16;4986982;28;20034;-71
2023/06/03 02:49:44;;;;;;;7.85;4.20;;;;;;;11.32;79.49;101439.59;4991589;28;20057;-71
2023/06/03 02:52:10;;;;;;;8.15;4.30;;;;;;;11.33;78.27;101439.63;4995459;28;20176;-71
2023/06/03 02:54:35;;;;;;;8.73;4.15;;;;;;;11.30;78.73;101439.63;4995048;28;20435;-71
2023/06/03 02:57:00;;;;;;;6.32;3.92;;;;;;;11.27;78.68;101449.97;4992937;28;20034;-71
2023/06/03 02:59:26;;;;;;;7.28;4.22;;;;;;;11.21;78.81;101457.72;4989531;28;20038;-71
2023/06/03 03:01:51;;;;;;;5.57;3.53;;;;;;;11.17;78.83;101457.72;4987886;28;20046;-71
2023/06/03 03:04:17;;;;;;;6.82;4.00;;;;;;;11.11;79.18;101458.56;4989072;28;20037;-71
2023/06/03 03:06:43;;;;;;;6.93;3.85;;;;;;;11.07;79.24;101463.75;4990458;28;20050;-71
2023/06/03 03:09:09;;;;;;;9.60;3.72;;;;;;;11.02;79.46;101462.88;4987891;28;20649;-71
2023/06/03 03:11:35;;;;;;;7.80;4.10;;;;;;;11.02;79.82;101465.47;4987331;28;20041;-71
2023/06/03 03:14:02;;;;;;;6.63;3.72;;;;;;;11.00;79.56;101469.78;4989065;28;20037;-71
2023/06/03 03:16:28;;;;;;;9.35;4.28;;;;;;;11.00;79.75;101468.06;4986590;28;20030;-71
2023/06/03 03:18:53;;;;;;;6.50;3.60;;;;;;;11.00;79.79;101462.03;4990126;28;20069;-71
2023/06/03 03:21:19;;;;;;;6.30;3.90;;;;;;;11.00;79.28;101468.06;4989465;28;20045;-71
2023/06/03 03:23:45;;;;;;;8.55;3.60;;;;;;;10.99;79.12;101471.50;4986544;28;20447;-71
2023/06/03 03:26:13;;;;;;;9.65;4.78;;;;;;;11.00;80.04;101465.47;4990139;28;20802;-71
2023/06/03 03:28:39;;;;;;;6.30;3.72;;;;;;;10.98;80.06;101477.53;4986222;28;20038;-71
2023/06/03 03:31:04;;;;;;;10.23;4.60;;;;;;;10.97;79.87;101480.13;4985323;28;20038;-71
2023/06/03 03:33:31;;;;;;;10.40;4.13;;;;;;;10.98;80.08;101484.44;4980794;28;20522;-71
2023/06/03 03:35:59;;;;;;;8.43;4.65;;;;;;;10.97;80.16;101474.94;4983737;28;20035;-71
2023/06/03 03:38:24;;;;;;;4.80;3.50;;;;;;;10.96;80.69;101479.25;4986186;28;20431;-70
2023/06/03 03:40:50;;;;;;;8.82;4.57;;;;;;;10.98;80.60;101489.63;4988339;28;20045;-71
2023/06/03 03:43:17;;;;;;;8.38;4.60;;;;;;;10.99;80.33;101484.44;4986319;28;20030;-67
2023/06/03 03:45:43;;;;;;;9.02;4.25;;;;;;;11.01;80.27;101481.88;4982970;28;20034;-67
2023/06/03 03:48:14;;;;;;;8.93;4.30;;;;;;;11.01;80.72;101485.28;4985713;28;20034;-67
2023/06/03 03:50:50;;;;;;;9.77;4.00;;;;;;;11.04;81.19;101479.28;4988514;28;20111;-67
2023/06/03 03:53:26;;;;;;;8.00;4.10;;;;;;;11.08;80.22;101489.63;4989600;28;20117;-67
2023/06/03 03:55:53;;;;;;;8.70;4.10;;;;;;;11.13;80.32;101484.44;4989471;28;20450;-67
2023/06/03 03:58:41;;;;;;;8.68;3.90;;;;;;;11.16;80.05;101480.13;4986860;28;20197;-67
2023/06/03 04:01:18;;;;;;;7.82;4.18;;;;;;;11.20;80.75;101481.00;4984101;28;20045;-67
2023/06/03 04:03:56;;;;;;;6.70;3.90;;;;;;;11.24;80.35;101487.91;4987145;28;20049;-67
2023/06/03 04:06:37;;;;;;;7.18;4.22;;;;;;;11.31;79.94;101484.44;4987654;28;20038;-68
2023/06/03 04:09:04;;;;;;;7.50;4.10;;;;;;;11.37;79.55;101481.84;4986565;28;20045;-67
2023/06/03 04:11:38;;;;;;;6.70;4.10;;;;;;;11.44;79.46;101486.22;4985860;28;20042;-67
2023/06/03 04:14:08;;;;;;;6.70;4.53;;;;;;;11.52;79.44;101479.31;4989112;28;20942;-67
2023/06/03 04:16:34;;;;;;;6.80;4.28;;;;;;;11.60;79.13;101474.13;4983850;28;20054;-67
2023/06/03 04:19:03;;;;;;;6.40;4.32;;;;;;;11.68;79.01;101483.63;4989889;28;20064;-67
2023/06/03 04:21:28;;;;;;;7.72;4.72;;;;;;;11.73;78.80;101476.69;4990459;28;20080;-67
2023/06/03 04:23:54;;;;;;;6.80;4.05;;;;;;;11.81;78.30;101484.47;4988509;28;20547;-67
2023/06/03 04:26:20;;;;;;;7.22;4.25;;;;;;;11.87;79.00;101480.09;4988805;28;20088;-67
2023/06/03 04:28:45;;;;;;;5.43;3.95;;;;;;;11.94;78.49;101483.56;4987754;28;20037;-68
2023/06/03 04:31:10;;;;;;;7.13;4.28;;;;;;;11.99;78.76;101479.22;4985102;28;20517;-67
2023/06/03 04:33:36;;;;;;;10.02;4.53;;;;;;;12.06;78.68;101478.34;4983330;28;20042;-67
2023/06/03 04:36:03;;;;;;;8.43;4.20;;;;;;;12.13;78.07;101485.22;4984248;28;20041;-67
2023/06/03 04:38:29;;;;;;;6.70;4.38;;;;;;;12.21;77.91;101477.41;4982505;28;20157;-67
2023/06/03 04:40:54;;;;;;;7.85;4.45;;;;;;;12.29;77.87;101481.69;4987648;28;20085;-68
2023/06/03 04:43:22;;;;;;;6.60;3.80;;;;;;;12.34;77.72;101479.97;4982479;28;20181;-67
2023/06/03 04:45:49;;;;;;;5.65;3.83;;;;;;;12.42;77.38;101480.78;4985232;28;20048;-67
2023/06/03 04:48:15;;;;;;;7.45;3.92;;;;;;;12.50;77.21;101475.56;4984790;28;20453;-67
2023/06/03 04:50:44;;;;;;;8.98;3.83;;;;;;;12.58;76.87;101480.72;4986488;28;20040;-67
2023/06/03 04:53:11;;;;;;;8.63;3.63;;;;;;;12.65;76.14;101472.88;4983995;28;20153;-68
2023/06/03 04:55:37;;;;;;;14.02;4.15;;;;;;;12.74;75.58;101466.78;4987127;28;20038;-67
2023/06/03 04:58:03;;;;;;;4.30;3.17;;;;;;;12.79;74.88;101462.44;4987927;28;20030;-68
2023/06/03 05:00:28;;;;;;;6.18;3.10;;;;;;;12.84;73.69;101458.09;4983471;28;20050;-68
2023/06/03 05:02:57;;;;;;;6.75;3.25;;;;;;;12.88;73.03;101445.06;4985287;28;20034;-67
2023/06/03 05:05:26;;;;;;;6.03;2.97;;;;;;;12.93;72.29;101445.91;4984449;28;20069;-67
2023/06/03 05:07:52;;;;;;;9.57;3.15;;;;;;;12.96;71.65;101435.50;4987702;28;20119;-67
2023/06/03 05:10:18;;;;;;;3.90;2.75;;;;;;;12.97;71.20;101433.75;4987315;28;20480;-68
2023/06/03 05:12:45;;;;;;;8.27;3.53;;;;;;;13.03;69.92;101418.16;4985902;28;20056;-67
2023/06/03 05:15:11;;;;;;;4.65;2.53;;;;;;;13.11;69.06;101413.81;4979430;28;20568;-67
2023/06/03 05:17:38;;;;;;;6.18;3.08;;;;;;;13.18;67.33;101386.91;4978871;28;20129;-66
2023/06/03 05:20:05;;;;;;;4.75;2.85;;;;;;;13.25;66.35;101377.31;4983631;28;20149;-67
2023/06/03 05:22:30;;;;;;;4.57;2.50;;;;;;;13.31;65.37;101364.28;4978891;28;20069;-68
2023/06/03 05:24:55;;;;;;;5.22;2.38;;;;;;;13.38;63.86;101340.84;4980697;28;20480;-68
2023/06/03 05:27:21;;;;;;;7.03;2.85;;;;;;;13.47;63.37;101345.91;4978024;28;20128;-68
2023/06/03 05:29:46;;;;;;;7.07;2.78;;;;;;;13.54;63.69;101359.69;4978162;28;20786;-68
2023/06/03 05:32:12;;;;;;;5.80;2.50;;;;;;;13.57;63.94;101372.66;4984028;28;20057;-68
2023/06/03 05:34:37;;;;;;;5.82;2.47;;;;;;;13.59;61.82;101336.28;4982727;28;20031;-67
2023/06/03 05:37:03;;;;;;;3.75;2.33;;;;;;;13.60;61.39;101338.84;4977698;28;20097;-67
2023/06/03 05:39:28;;;;;;;5.20;2.10;;;;;;;13.63;60.71;101335.34;4984263;28;20108;-68
2023/06/03 05:41:53;;;;;;;4.45;2.20;;;;;;;13.71;61.34;101344.78;4980237;28;20713;-67
2023/06/03 05:44:19;;;;;;;4.93;1.90;;;;;;;13.73;59.61;101327.44;4976304;28;20054;-68
2023/06/03 05:46:44;;;;;;;4.13;2.10;;;;;;;13.82;60.34;101340.34;4976507;28;20060;-68
2023/06/03 05:49:10;;;;;;;6.82;2.30;;;;;;;13.93;59.92;101337.59;4982757;28;20070;-68
2023/06/03 05:51:35;;;;;;;5.50;2.00;;;;;;;14.00;58.46;101311.50;4972887;28;20042;-68
2023/06/03 05:54:00;;;;;;;4.63;1.80;;;;;;;14.09;57.32;101305.31;4978449;28;20719;-68
2023/06/03 05:56:26;;;;;;;5.22;2.05;;;;;;;14.16;56.58;101296.53;4985405;28;20041;-68
2023/06/03 05:58:51;;;;;;;3.22;1.80;;;;;;;14.22;56.00;101295.59;4976411;28;20104;-68
2023/06/03 06:01:17;;;;;;;6.03;1.88;;;;;;;14.29;55.58;101300.69;4979990;28;20062;-68
2023/06/03 06:03:42;;;;;;;3.97;1.90;;;;;;;14.39;56.09;101311.84;4980385;28;20026;-68
2023/06/03 06:06:07;;;;;;;5.53;2.05;;;;;;;14.48;55.95;101315.13;4984423;28;20042;-67
2023/06/03 06:08:33;;;;;;;5.38;1.80;;;;;;;14.58;54.41;101288.09;4989496;28;20060;-68
2023/06/03 06:10:58;;;;;;;5.13;1.92;;;;;;;14.64;53.44;101284.53;4982394;28;20038;-68
2023/06/03 06:13:23;;;;;;;4.78;1.58;;;;;;;14.70;54.17;101286.19;4985388;28;20136;-68
2023/06/03 06:16:03;;;;;;;2.75;1.52;;;;;;;14.77;54.89;101306.88;4985691;28;20033;-68
2023/06/03 06:18:29;;;;;;;3.78;1.63;;;;;;;14.82;53.94;101289.44;4987163;28;20045;-68
2023/06/03 06:20:56;;;;;;;3.50;1.60;;;;;;;14.89;53.42;101287.59;4988938;28;20084;-68
2023/06/03 06:23:21;;;;;;;3.47;1.50;;;;;;;14.93;53.61;101287.50;4981911;28;20059;-68
2023/06/03 06:25:52;;;;;;;4.40;1.75;;;;;;;15.02;53.48;101289.06;4983153;28;20531;-68
2023/06/03 06:28:19;;;;;;;2.08;1.27;;;;;;;15.07;53.04;101290.72;4982450;28;20439;-69
2023/06/03 06:30:45;;;;;;;6.82;1.88;;;;;;;15.15;53.41;101299.25;4983061;28;20116;-68
2023/06/03 06:33:13;;;;;;;3.88;1.58;;;;;;;15.19;51.51;101266.19;4993578;28;20661;-68
2023/06/03 06:35:39;;;;;;;5.05;1.30;;;;;;;15.23;53.30;101291.28;4988819;28;20038;-68
2023/06/03 06:38:05;;;;;;;3.10;1.75;;;;;;;15.31;53.23;101302.44;4986637;28;20208;-69
2023/06/03 06:40:34;;;;;;;3.05;1.25;;;;;;;15.38;53.08;101301.41;4984731;28;20030;-68
2023/06/03 06:43:00;;;;;;;2.42;1.25;;;;;;;15.47;50.74;101262.16;4980699;28;20484;-68
2023/06/03 06:45:28;;;;;;;3.40;1.52;;;;;;;15.57;49.52;101250.66;4985904;28;20042;-68
2023/06/03 06:48:13;;;;;;;5.18;1.55;;;;;;;15.66;49.12;101254.84;4980649;28;20041;-68
2023/06/03 06:50:50;;;;;;;2.67;1.42;;;;;;;15.72;50.19;101272.97;4983658;28;20534;-68
2023/06/03 06:53:18;;;;;;;7.10;1.70;;;;;;;15.69;49.45;101267.81;4982404;28;20038;-69
2023/06/03 06:55:50;;;;;;;3.92;1.48;;;;;;;15.72;48.91;101273.81;4981396;28;20170;-69
2023/06/03 06:58:17;;;;;;;3.22;1.27;;;;;;;15.81;49.24;101266.69;4981798;28;20396;-68
2023/06/03 07:00:43;;;;;;;4.30;1.83;;;;;;;15.93;48.53;101259.47;4985013;28;20480;-68
2023/06/03 07:03:09;;;;;;;4.38;1.50;;;;;;;15.99;46.89;101241.06;4986046;28;20061;-68
2023/06/03 07:05:35;;;;;;;3.60;1.30;;;;;;;16.07;47.86;101259.13;4981333;28;20038;-67
2023/06/03 07:08:00;;;;;;;2.88;1.33;;;;;;;16.24;47.95;101267.41;4979410;28;20085;-68
2023/06/03 07:10:26;;;;;;;6.53;1.90;;;;;;;16.30;47.85;101260.31;4982115;28;20039;-68
2023/06/03 07:12:52;;;;;;;4.38;1.60;;;;;;;16.39;47.41;101266.19;4996223;28;20053;-68
2023/06/03 07:15:20;;;;;;;4.03;1.40;;;;;;;16.35;47.32;101264.56;4981183;28;20035;-68
2023/06/03 07:17:50;;;;;;;3.60;1.30;;;;;;;16.44;47.95;101278.25;4979502;28;20074;-69
2023/06/03 07:20:21;;;;;;;2.88;1.60;;;;;;;16.49;48.44;101272.91;4983120;28;20050;-68
2023/06/03 07:22:47;;;;;;;4.07;1.63;;;;;;;16.62;48.31;101283.00;4978840;28;20478;-68
2023/06/03 07:25:36;;;;;;;4.78;1.10;;;;;;;16.64;45.60;101239.47;4981726;28;20076;-69
2023/06/03 07:28:30;;;;;;;4.93;1.58;;;;;;;16.72;46.95;101261.00;4995455;28;20029;-68
2023/06/03 07:30:59;;;;;;;5.30;1.50;;;;;;;16.77;46.67;101255.72;4985881;28;20535;-68
2023/06/03 07:33:26;;;;;;;3.75;1.58;;;;;;;16.80;46.18;101248.63;4978688;28;20042;-68
2023/06/03 07:35:54;;;;;;;5.55;1.52;;;;;;;16.90;46.57;101249.25;4983667;28;20038;-68
2023/06/03 07:38:39;;;;;;;3.10;1.35;;;;;;;17.13;46.76;101264.28;4986260;28;20788;-69
2023/06/03 07:41:06;;;;;;;4.72;1.45;;;;;;;17.18;46.54;101258.06;5004267;28;20049;-69
2023/06/03 07:43:32;;;;;;;5.78;1.52;;;;;;;17.19;46.19;101257.16;4982202;28;20038;-68
2023/06/03 07:46:02;;;;;;;4.15;1.13;;;;;;;17.21;45.14;101244.06;4985090;28;20399;-68
2023/06/03 07:48:28;;;;;;;4.75;1.60;;;;;;;17.27;45.64;101252.59;4982256;28;20103;-67
2023/06/03 07:50:53;;;;;;;4.90;1.73;;;;;;;17.39;44.48;101243.53;4983665;28;20034;-67
2023/06/03 07:53:23;;;;;;;3.95;1.38;;;;;;;17.46;43.98;101239.84;4981807;28;20527;-68
2023/06/03 07:55:52;;;;;;;3.33;1.23;;;;;;;17.63;45.06;101257.66;4982347;28;20773;-69
2023/06/03 07:58:18;;;;;;;5.70;1.58;;;;;;;17.74;44.82;101245.13;4980214;28;20088;-68
2023/06/03 08:00:50;;;;;;;2.38;1.10;;;;;;;17.91;44.68;101256.81;4981486;28;20494;-68
2023/06/03 08:03:18;;;;;;;2.17;1.65;;;;;;;18.04;43.35;101240.72;4983719;28;20046;-69
2023/06/03 08:05:47;;;;;;;3.10;1.13;;;;;;;18.20;43.72;101255.88;4980766;28;20038;-68
2023/06/03 08:08:13;;;;;;;4.03;1.23;;;;;;;18.13;42.11;101225.63;4981574;28;20780;-68
2023/06/03 08:10:42;;;;;;;5.90;1.20;;;;;;;18.09;42.66;101246.66;4979435;28;20080;-68
2023/06/03 08:13:07;;;;;;;3.90;1.20;;;;;;;18.25;44.41;101277.56;4980300;28;20040;-68
2023/06/03 08:15:35;;;;;;;3.55;1.15;;;;;;;18.33;43.24;101253.75;4980195;28;20034;-67
2023/06/03 08:18:08;;;;;;;3.70;1.30;;;;;;;18.32;42.88;101249.41;4976801;28;20034;-68
2023/06/03 08:20:36;;;;;;;6.30;1.90;;;;;;;18.52;41.62;101236.53;4981647;28;20044;-67
2023/06/03 08:23:02;;;;;;;4.28;1.63;;;;;;;18.50;41.58;101231.34;4981646;28;20121;-67
2023/06/03 08:25:28;;;;;;;3.67;1.33;;;;;;;18.56;42.45;101253.84;4980065;28;20138;-68
2023/06/03 08:27:53;;;;;;;2.97;1.40;;;;;;;18.76;41.69;101240.91;4982590;28;20021;-68
2023/06/03 08:30:20;;;;;;;4.10;1.30;;;;;;;18.86;41.98;101251.97;4983521;28;20455;-67
2023/06/03 08:32:47;;;;;;;3.88;1.48;;;;;;;18.91;42.08;101237.81;4980281;28;20511;-68
2023/06/03 08:35:15;;;;;;;3.40;1.27;;;;;;;19.02;43.15;101264.50;4982540;28;20065;-67
2023/06/03 08:37:41;;;;;;;5.85;1.42;;;;;;;19.21;42.12;101245.47;4979835;28;20034;-68
2023/06/03 08:40:09;;;;;;;3.63;1.42;;;;;;;19.25;41.25;101232.22;4983117;28;20041;-67
2023/06/03 08:42:46;;;;;;;6.60;1.48;;;;;;;19.27;41.96;101238.25;4980223;28;20105;-69
2023/06/03 08:45:16;;;;;;;2.45;1.40;;;;;;;19.10;40.17;101217.06;4980387;28;20045;-68
2023/06/03 08:47:57;;;;;;;4.30;1.60;;;;;;;19.11;41.19;101237.13;4982207;28;20121;-70
2023/06/03 08:50:25;;;;;;;2.50;1.40;;;;;;;19.13;40.96;101232.66;4988262;28;20092;-69
2023/06/03 08:52:55;;;;;;;5.97;2.03;;;;;;;19.24;41.77;101243.59;5009090;28;20069;-69
2023/06/03 08:55:21;;;;;;;3.65;1.83;;;;;;;19.51;41.87;101247.84;4979497;28;20081;-69
2023/06/03 08:58:03;;;;;;;4.95;1.63;;;;;;;19.70;40.30;101218.28;4979246;28;20026;-68
2023/06/03 09:00:30;;;;;;;6.10;1.75;;;;;;;19.89;40.65;101222.78;4984736;28;20104;-69
2023/06/03 09:02:56;;;;;;;3.95;1.50;;;;;;;20.19;41.37;101239.06;4989049;28;20139;-69
2023/06/03 09:05:22;;;;;;;4.20;1.60;;;;;;;20.39;40.93;101230.41;4978345;28;20462;-68
2023/06/03 09:07:51;;;;;;;3.05;1.50;;;;;;;20.36;40.31;101231.41;4978761;28;20794;-69
2023/06/03 09:10:20;;;;;;;6.30;1.83;;;;;;;20.53;40.51;101222.81;4978732;28;20080;-68
2023/06/03 09:12:47;;;;;;;3.20;1.40;;;;;;;20.44;40.32;101225.81;4985051;28;20054;-70
2023/06/03 09:15:16;;;;;;;3.70;1.67;;;;;;;20.71;39.84;101222.06;4982406;28;20038;-70
2023/06/03 09:17:42;;;;;;;4.90;1.50;;;;;;;20.91;39.52;101226.44;4981673;28;20038;-69
2023/06/03 09:20:09;;;;;;;3.35;2.00;;;;;;;21.03;40.17;101224.13;4986074;28;20129;-73
2023/06/03 09:22:36;;;;;;;4.93;2.05;;;;;;;20.97;38.09;101203.38;4984564;28;20045;-70
2023/06/03 09:25:02;;;;;;;5.70;1.55;;;;;;;20.87;38.83;101222.25;4982390;28;20109;-69
2023/06/03 09:27:27;;;;;;;3.40;1.70;;;;;;;20.90;37.98;101209.81;4981358;28;20057;-73
2023/06/03 09:29:54;;;;;;;3.17;1.88;;;;;;;21.05;39.63;101232.78;4986883;28;20069;-68
2023/06/03 09:32:20;;;;;;;5.30;1.70;;;;;;;21.27;39.37;101219.56;4976465;28;20053;-68
2023/06/03 09:34:45;;;;;;;4.45;1.60;;;;;;;21.51;39.41;101231.59;4986962;28;20470;-69
2023/06/03 09:37:11;;;;;;;3.40;1.45;;;;;;;21.68;40.15;101242.22;4983231;28;20157;-69
2023/06/03 09:39:37;;;;;;;3.20;1.67;;;;;;;21.89;37.29;101211.41;4984569;28;20104;-69
2023/06/03 09:42:03;;;;;;;4.70;2.05;;;;;;;21.82;36.93;101211.78;4986827;28;20954;-70
2023/06/03 09:44:39;;;;;;;5.63;1.70;;;;;;;21.97;38.70;101229.47;4987525;28;20287;-70
2023/06/03 09:47:05;;;;;;;2.63;1.63;;;;;;;22.03;36.97;101205.47;4986423;28;20095;-69
2023/06/03 09:49:30;;;;;;;4.35;1.83;;;;;;;22.11;36.97;101211.22;4978965;28;20567;-70
2023/06/03 09:51:56;;;;;;;6.22;2.47;;;;;;;22.45;37.74;101220.97;5022270;28;21459;-72
2023/06/03 09:54:23;;;;;;;5.22;2.03;;;;;;;22.44;36.42;101208.75;4988436;28;20042;-70
2023/06/03 09:56:50;;;;;;;3.83;1.63;;;;;;;22.44;36.70;101209.59;4979398;28;20073;-70
2023/06/03 09:59:17;;;;;;;4.50;2.13;;;;;;;22.56;36.62;101218.66;4988894;28;20406;-70
2023/06/03 10:01:46;;;;;;;3.63;1.65;;;;;;;22.54;35.76;101207.31;4986138;28;20034;-70
2023/06/03 10:04:14;;;;;;;11.30;1.90;;;;;;;22.33;35.31;101196.06;4989539;28;20026;-69
2023/06/03 10:06:39;;;;;;;4.70;2.30;;;;;;;22.34;36.06;101224.09;4988694;28;20112;-70
2023/06/03 10:09:17;;;;;;;5.05;2.10;;;;;;;22.38;34.36;101199.38;4985279;28;20094;-69
2023/06/03 10:11:48;;;;;;;5.40;2.20;;;;;;;22.53;35.95;101226.72;4988731;28;20137;-70
2023/06/03 10:14:17;;;;;;;7.28;2.20;;;;;;;22.51;35.44;101215.38;4982948;28;20089;-70
2023/06/03 10:17:07;;;;;;;5.63;2.10;;;;;;;22.35;33.73;101200.31;4986057;28;20050;-69
2023/06/03 10:19:40;;;;;;;4.65;1.75;;;;;;;22.33;35.98;101228.53;4985132;28;20034;-70
2023/06/03 10:22:08;;;;;;;5.22;1.80;;;;;;;22.59;35.23;101224.59;4990394;28;20568;-69
2023/06/03 10:24:36;;;;;;;4.05;1.70;;;;;;;22.71;34.07;101207.34;4989554;28;20092;-69
2023/06/03 10:27:03;;;;;;;7.30;1.90;;;;;;;22.76;34.02;101202.69;4986187;28;20125;-69
2023/06/03 10:29:31;;;;;;;3.42;1.77;;;;;;;22.74;34.83;101223.81;4990777;28;20077;-70
2023/06/03 10:32:00;;;;;;;3.78;1.92;;;;;;;22.98;33.76;101216.44;4988907;28;20117;-69
2023/06/03 10:34:28;;;;;;;4.63;1.80;;;;;;;22.89;33.28;101201.94;4981988;28;20046;-70
2023/06/03 10:36:57;;;;;;;2.58;1.60;;;;;;;23.00;33.00;101193.50;4988387;28;20030;-72
2023/06/03 10:39:25;;;;;;;5.03;2.17;;;;;;;23.25;33.15;101193.03;4990606;28;20093;-70
2023/06/03 10:41:57;;;;;;;3.53;1.77;;;;;;;23.38;33.05;101207.28;4988056;28;20045;-69
2023/06/03 10:44:23;;;;;;;5.22;1.98;;;;;;;23.48;32.40;101200.59;4981288;28;20088;-69
2023/06/03 10:47:10;;;;;;;3.70;1.90;;;;;;;22.98;32.34;101195.34;4981031;28;20039;-70
2023/06/03 10:49:50;;;;;;;5.68;1.92;;;;;;;22.98;32.64;101212.97;4984978;28;20031;-70
2023/06/03 10:52:22;;;;;;;6.13;2.22;;;;;;;23.08;33.34;101214.16;4983452;28;20039;-69
2023/06/03 10:55:00;;;;;;;5.22;1.60;;;;;;;23.19;32.63;101214.47;5014867;28;20026;-69
2023/06/03 10:57:44;;;;;;;4.43;2.00;;;;;;;23.10;32.69;101217.56;4984332;28;20069;-69
2023/06/03 11:00:11;;;;;;;5.07;1.95;;;;;;;23.25;33.89;101228.19;4979953;28;20145;-68
2023/06/03 11:03:04;;;;;;;10.50;1.98;;;;;;;23.06;32.87;101216.91;4987480;28;20152;-69
2023/06/03 11:05:30;;;;;;;5.40;2.00;;;;;;;23.28;31.93;101208.72;4981803;28;20033;-70
2023/06/03 11:07:55;;;;;;;4.93;2.10;;;;;;;23.24;33.28;101212.47;4984203;28;20751;-69
2023/06/03 11:10:36;;;;;;;7.03;1.88;;;;;;;23.57;32.60;101204.50;4997145;28;20039;-69
2023/06/03 11:13:02;;;;;;;3.50;1.90;;;;;;;23.53;32.19;101201.19;4981670;28;20026;-69
2023/06/03 11:16:01;;;;;;;6.70;2.00;;;;;;;23.55;31.84;101196.66;4978234;28;20650;-70
2023/06/03 11:18:30;;;;;;;3.08;1.75;;;;;;;23.61;31.73;101183.13;4977094;28;20129;-70
2023/06/03 11:20:56;;;;;;;4.22;1.75;;;;;;;23.45;31.88;101192.84;4984783;28;20042;-70
2023/06/03 11:23:44;;;;;;;5.00;1.90;;;;;;;24.07;32.63;101206.97;4982319;28;20448;-69
2023/06/03 11:26:35;;;;;;;3.00;1.80;;;;;;;24.15;32.69;101199.44;4982816;28;20072;-69
2023/06/03 11:29:04;;;;;;;6.15;1.65;;;;;;;24.07;31.86;101193.78;4983860;28;20034;-70